createdAt,value
2022-09-26T00:01:20.331Z,27.38
2022-09-26T00:03:49.581Z,21.88
2022-09-26T00:06:18.077Z,25.02
2022-09-26T00:08:46.730Z,23.98
2022-09-26T00:11:17.031Z,21.38
2022-09-26T00:13:44.846Z,20.70
2022-09-26T00:16:13.151Z,30.55
2022-09-26T00:18:41.438Z,29.35
2022-09-26T00:21:10.957Z,26.33
2022-09-26T00:23:39.118Z,25.20
2022-09-26T00:26:07.043Z,28.50
2022-09-26T00:28:35.234Z,27.33
2022-09-26T00:31:06.602Z,19.63
2022-09-26T00:33:34.925Z,15.55
2022-09-26T00:36:02.647Z,14.32
2022-09-26T00:38:30.325Z,18.52
2022-09-26T00:40:58.756Z,21.42
2022-09-26T00:43:27.686Z,21.95
2022-09-26T00:45:56.317Z,30.98
2022-09-26T00:48:24.207Z,25.02
2022-09-26T00:50:52.744Z,25.33
2022-09-26T00:53:22.112Z,21.48
2022-09-26T00:55:56.042Z,18.33
2022-09-26T00:58:28.066Z,19.25
2022-09-26T01:00:56.442Z,23.30
2022-09-26T01:03:25.031Z,26.77
2022-09-26T01:05:52.616Z,22.83
2022-09-26T01:08:22.851Z,25.33
2022-09-26T01:10:50.572Z,31.27
2022-09-26T01:13:18.243Z,36.00
2022-09-26T01:15:45.991Z,34.75
2022-09-26T01:18:13.720Z,34.47
2022-09-26T01:21:01.539Z,33.40
2022-09-26T01:23:29.609Z,35.47
2022-09-26T01:26:06.334Z,32.22
2022-09-26T01:29:00.630Z,33.13
2022-09-26T01:31:28.855Z,33.40
2022-09-26T01:34:15.289Z,30.05
2022-09-26T01:37:14.459Z,31.33
2022-09-26T01:39:47.286Z,31.83
2022-09-26T01:42:21.227Z,29.88
2022-09-26T01:45:01.249Z,30.40
2022-09-26T01:47:58.511Z,29.67
2022-09-26T01:50:34.938Z,28.15
2022-09-26T01:53:06.613Z,28.60
2022-09-26T01:58:11.361Z,27.38
2022-09-26T02:00:41.395Z,27.45
2022-09-26T02:03:14.243Z,29.67
2022-09-26T02:05:45.260Z,27.45
2022-09-26T02:08:25.582Z,28.55
2022-09-26T02:11:02.340Z,26.02
2022-09-26T02:13:36.285Z,24.15
2022-09-26T02:16:26.106Z,25.88
2022-09-26T02:18:58.202Z,26.02
2022-09-26T02:21:26.026Z,24.85
2022-09-26T02:23:54.790Z,25.08
2022-09-26T02:26:23.903Z,24.98
2022-09-26T02:28:52.788Z,27.27
2022-09-26T02:31:22.899Z,24.42
2022-09-26T02:33:51.546Z,25.65
2022-09-26T02:36:20.061Z,24.83
2022-09-26T02:38:48.150Z,23.05
2022-09-26T02:41:35.912Z,24.02
2022-09-26T02:44:12.702Z,25.63
2022-09-26T02:47:05.732Z,24.05
2022-09-26T02:49:45.384Z,28.63
2022-09-26T02:52:21.947Z,28.40
2022-09-26T02:54:51.067Z,24.00
2022-09-26T02:57:29.926Z,26.70
2022-09-26T03:00:03.869Z,28.25
2022-09-26T03:02:53.756Z,31.60
2022-09-26T03:05:22.833Z,28.20
2022-09-26T03:08:11.011Z,28.27
2022-09-26T03:10:41.207Z,36.88
2022-09-26T03:13:14.143Z,31.88
2022-09-26T03:15:45.267Z,33.40
2022-09-26T03:18:15.494Z,31.33
2022-09-26T03:20:44.106Z,31.08
2022-09-26T03:23:12.001Z,26.40
2022-09-26T03:25:40.916Z,31.17
2022-09-26T03:28:13.110Z,47.47
2022-09-26T03:30:41.244Z,38.75
2022-09-26T03:33:27.950Z,62.22
2022-09-26T03:35:59.786Z,39.72
2022-09-26T03:38:28.360Z,32.67
2022-09-26T03:41:16.359Z,31.50
2022-09-26T03:44:05.882Z,33.63
2022-09-26T03:46:54.563Z,33.95
2022-09-26T03:49:22.243Z,33.90
2022-09-26T03:51:49.868Z,61.78
2022-09-26T03:54:17.763Z,31.73
2022-09-26T03:56:45.426Z,27.35
2022-09-26T03:59:13.229Z,24.90
2022-09-26T04:01:41.928Z,27.98
2022-09-26T04:04:09.530Z,27.30
2022-09-26T04:06:37.986Z,29.65
2022-09-26T04:09:05.860Z,28.52
2022-09-26T04:11:34.496Z,26.90
2022-09-26T04:14:02.114Z,26.27
2022-09-26T04:19:09.269Z,24.98
2022-09-26T04:21:38.282Z,29.17
2022-09-26T04:24:05.902Z,28.08
2022-09-26T04:26:33.758Z,26.38
2022-09-26T04:29:01.641Z,36.22
2022-09-26T04:31:50.013Z,29.73
2022-09-26T04:34:26.873Z,25.10
2022-09-26T04:36:55.386Z,23.23
2022-09-26T04:39:23.425Z,42.72
2022-09-26T04:41:52.420Z,23.60
2022-09-26T04:44:20.458Z,21.27
2022-09-26T04:46:48.275Z,21.05
2022-09-26T04:49:16.862Z,22.02
2022-09-26T04:51:45.490Z,20.75
2022-09-26T04:54:13.346Z,20.77
2022-09-26T04:56:42.906Z,20.60
2022-09-26T04:59:10.829Z,20.52
2022-09-26T05:01:58.248Z,20.38
2022-09-26T05:04:33.402Z,19.17
2022-09-26T05:07:01.567Z,18.80
2022-09-26T05:09:35.714Z,19.75
2022-09-26T05:12:07.875Z,19.38
2022-09-26T05:14:37.880Z,20.75
2022-09-26T05:17:06.012Z,22.23
2022-09-26T05:19:33.997Z,21.25
2022-09-26T05:22:25.282Z,20.35
2022-09-26T05:25:12.965Z,26.17
2022-09-26T05:27:41.395Z,24.30
2022-09-26T05:30:31.359Z,25.23
2022-09-26T05:32:59.718Z,21.23
2022-09-26T05:35:27.683Z,22.23
2022-09-26T05:37:59.506Z,21.95
2022-09-26T05:40:46.656Z,20.23
2022-09-26T05:43:14.604Z,19.92
2022-09-26T05:45:43.088Z,19.23
2022-09-26T05:48:13.062Z,19.23
2022-09-26T05:50:43.609Z,19.10
2022-09-26T05:53:11.676Z,23.25
2022-09-26T05:55:39.538Z,21.95
2022-09-26T05:58:15.558Z,19.70
2022-09-26T06:01:03.335Z,18.90
2022-09-26T06:03:34.597Z,19.90
2022-09-26T06:06:18.398Z,19.58
2022-09-26T06:08:47.293Z,19.58
2022-09-26T06:11:30.753Z,20.10
2022-09-26T06:14:00.877Z,18.92
2022-09-26T06:16:29.830Z,20.80
2022-09-26T06:18:58.426Z,19.27
2022-09-26T06:21:27.488Z,19.00
2022-09-26T06:24:01.354Z,18.63
2022-09-26T06:26:30.992Z,18.85
2022-09-26T06:29:02.812Z,21.02
2022-09-26T06:31:35.417Z,19.45
2022-09-26T06:34:15.352Z,20.40
2022-09-26T06:36:47.280Z,20.60
2022-09-26T06:39:16.445Z,24.20
2022-09-26T06:41:46.427Z,24.35
2022-09-26T06:44:30.200Z,24.80
2022-09-26T06:47:30.560Z,27.77
2022-09-26T06:50:16.788Z,20.40
2022-09-26T06:52:50.049Z,21.45
2022-09-26T06:55:18.939Z,22.27
2022-09-26T06:58:06.451Z,20.13
2022-09-26T07:00:48.525Z,18.40
2022-09-26T07:03:46.130Z,21.55
2022-09-26T07:06:34.172Z,19.52
2022-09-26T07:09:07.562Z,19.38
2022-09-26T07:12:16.202Z,21.50
2022-09-26T07:14:45.775Z,20.02
2022-09-26T07:17:22.707Z,18.60
2022-09-26T07:20:14.630Z,22.95
2022-09-26T07:23:04.833Z,23.65
2022-09-26T07:25:33.662Z,23.50
2022-09-26T07:28:03.093Z,23.30
2022-09-26T07:30:43.725Z,24.73
2022-09-26T07:33:27.124Z,24.48
2022-09-26T07:36:04.426Z,20.60
2022-09-26T07:38:33.311Z,21.88
2022-09-26T07:41:01.373Z,25.23
2022-09-26T07:44:12.613Z,24.63
2022-09-26T07:46:39.115Z,22.17
2022-09-26T07:49:25.354Z,23.63
2022-09-26T07:52:11.816Z,23.40
2022-09-26T07:54:50.730Z,23.38
2022-09-26T07:57:33.078Z,22.48
2022-09-26T08:00:27.435Z,27.20
2022-09-26T08:03:05.271Z,25.27
2022-09-26T08:05:37.215Z,30.17
2022-09-26T08:08:05.372Z,23.88
2022-09-26T08:10:51.734Z,21.92
2022-09-26T08:13:43.387Z,19.60
2022-09-26T08:16:41.676Z,19.27
2022-09-26T08:19:11.225Z,20.42
2022-09-26T08:21:40.110Z,19.10
2022-09-26T08:24:07.720Z,23.60
2022-09-26T08:26:48.179Z,22.20
2022-09-26T08:29:32.208Z,25.70
2022-09-26T08:32:03.121Z,24.15
2022-09-26T08:34:35.167Z,174.60
2022-09-26T08:37:26.245Z,128.80
2022-09-26T08:40:12.706Z,81.55
2022-09-26T08:43:04.354Z,47.92
2022-09-26T08:46:10.782Z,22.30
2022-09-26T08:49:00.638Z,38.05
2022-09-26T08:51:32.452Z,29.00
2022-09-26T08:54:04.240Z,66.05
2022-09-26T08:56:37.401Z,48.53
2022-09-26T08:59:06.996Z,31.92
2022-09-26T09:01:39.447Z,11.70
2022-09-26T09:04:26.331Z,43.20
2022-09-26T09:07:02.894Z,77.50
2022-09-26T09:09:30.879Z,17.58
2022-09-26T09:12:24.816Z,10.15
2022-09-26T09:15:40.474Z,8.60
2022-09-26T09:18:50.612Z,8.60
2022-09-26T09:24:33.556Z,10.75
2022-09-26T09:30:16.590Z,28.10
2022-09-26T09:33:16.379Z,12.70
2022-09-26T09:35:54.852Z,12.55
2022-09-26T09:38:33.448Z,13.55
2022-09-26T09:41:20.936Z,11.77
2022-09-26T09:43:51.919Z,11.55
2022-09-26T09:46:25.364Z,11.03
2022-09-26T09:48:56.960Z,11.43
2022-09-26T09:51:35.464Z,10.60
2022-09-26T09:54:06.276Z,12.05
2022-09-26T09:56:53.560Z,13.82
2022-09-26T09:59:37.016Z,11.73
2022-09-26T10:02:28.967Z,12.85
2022-09-26T10:05:17.128Z,12.88
2022-09-26T10:07:47.818Z,14.10
2022-09-26T10:10:45.522Z,17.80
2022-09-26T10:13:32.631Z,7.00
2022-09-26T10:16:18.179Z,10.15
2022-09-26T10:19:04.045Z,9.90
2022-09-26T10:21:39.839Z,10.32
2022-09-26T10:24:09.158Z,11.23
2022-09-26T10:26:49.844Z,11.35
2022-09-26T10:29:36.780Z,7.75
2022-09-26T10:32:05.432Z,41.20
2022-09-26T10:34:35.947Z,17.35
2022-09-26T10:37:22.151Z,14.23
2022-09-26T10:40:15.685Z,7.55
2022-09-26T10:42:46.987Z,8.55
2022-09-26T10:45:17.450Z,7.30
2022-09-26T10:48:22.131Z,5.97
2022-09-26T10:51:09.372Z,6.50
2022-09-26T10:53:41.381Z,6.00
2022-09-26T10:56:12.245Z,8.35
2022-09-26T10:58:43.432Z,4.18
2022-09-26T11:01:41.507Z,6.20
2022-09-26T11:04:36.842Z,4.55
2022-09-26T11:07:34.790Z,4.50
2022-09-26T11:10:42.186Z,4.18
2022-09-26T11:13:18.635Z,28.60
2022-09-26T11:16:03.637Z,15.38
2022-09-26T11:18:50.972Z,3.30
2022-09-26T11:21:35.229Z,6.15
2022-09-26T11:24:14.904Z,17.20
2022-09-26T11:27:01.365Z,2.85
2022-09-26T11:29:41.881Z,4.75
2022-09-26T11:32:18.984Z,9.32
2022-09-26T11:35:42.094Z,2.30
2022-09-26T11:38:25.311Z,2.70
2022-09-26T11:41:03.734Z,2.17
2022-09-26T11:43:37.585Z,3.53
2022-09-26T11:46:18.056Z,3.40
2022-09-26T11:49:27.502Z,2.20
2022-09-26T11:52:14.457Z,3.15
2022-09-26T11:54:58.473Z,3.67
2022-09-26T11:57:34.179Z,8.93
2022-09-26T12:00:10.089Z,2.22
2022-09-26T12:02:43.616Z,2.58
2022-09-26T12:07:44.553Z,2.45
2022-09-26T12:10:12.298Z,5.67
2022-09-26T12:12:49.667Z,3.45
2022-09-26T12:15:21.955Z,5.70
2022-09-26T12:17:49.710Z,3.53
2022-09-26T12:20:46.732Z,3.30
2022-09-26T12:23:29.673Z,4.80
2022-09-26T12:26:02.900Z,3.17
2022-09-26T12:28:39.518Z,4.45
2022-09-26T12:31:29.277Z,4.85
2022-09-26T12:34:07.751Z,7.22
2022-09-26T12:36:48.042Z,8.55
2022-09-26T12:39:16.814Z,8.18
2022-09-26T12:41:44.397Z,4.80
2022-09-26T12:44:31.323Z,4.22
2022-09-26T12:46:59.186Z,3.63
2022-09-26T12:49:45.610Z,3.70
2022-09-26T12:52:16.418Z,5.68
2022-09-26T12:54:44.226Z,5.30
2022-09-26T13:09:20.782Z,3.75
2022-09-26T13:12:04.395Z,4.20
2022-09-26T13:15:03.483Z,3.65
2022-09-26T13:17:39.379Z,3.78
2022-09-26T13:20:31.562Z,3.83
2022-09-26T13:23:19.024Z,4.03
2022-09-26T13:26:09.737Z,4.50
2022-09-26T13:29:00.847Z,4.93
2022-09-26T13:31:40.436Z,5.47
2022-09-26T13:34:13.924Z,5.50
2022-09-26T13:36:42.374Z,5.97
2022-09-26T13:39:32.186Z,5.80
2022-09-26T13:42:02.447Z,5.60
2022-09-26T13:44:38.599Z,5.72
2022-09-26T13:47:24.720Z,5.50
2022-09-26T13:49:55.146Z,5.25
2022-09-26T13:52:52.539Z,5.10
2022-09-26T13:55:21.836Z,6.38
2022-09-26T13:58:03.913Z,5.88
2022-09-26T14:00:31.620Z,6.35
2022-09-26T14:03:13.288Z,6.22
2022-09-26T14:05:50.807Z,7.10
2022-09-26T14:08:39.569Z,6.53
2022-09-26T14:11:14.821Z,7.15
2022-09-26T14:13:42.085Z,7.70
2022-09-26T14:16:27.590Z,6.65
2022-09-26T14:19:16.238Z,7.00
2022-09-26T14:21:58.480Z,6.03
2022-09-26T14:24:37.622Z,6.50
2022-09-26T14:27:11.175Z,5.97
2022-09-26T14:29:38.360Z,6.28
2022-09-26T14:32:10.269Z,6.80
2022-09-26T14:34:57.227Z,6.03
2022-09-26T14:37:24.788Z,6.68
2022-09-26T14:40:00.517Z,7.63
2022-09-26T14:42:34.213Z,5.10
2022-09-26T14:45:05.082Z,4.88
2022-09-26T14:47:43.643Z,5.65
2022-09-26T14:50:26.794Z,5.32
2022-09-26T14:52:56.681Z,6.32
2022-09-26T14:55:25.294Z,6.10
2022-09-26T14:58:12.773Z,5.85
2022-09-26T15:00:43.196Z,6.15
2022-09-26T15:03:16.744Z,6.75
2022-09-26T15:05:46.149Z,11.13
2022-09-26T15:08:28.769Z,12.30
2022-09-26T15:10:58.780Z,6.95
2022-09-26T15:13:39.465Z,8.02
2022-09-26T15:16:29.201Z,6.90
2022-09-26T15:19:14.306Z,6.10
2022-09-26T15:21:48.165Z,6.70
2022-09-26T15:24:33.442Z,6.75
2022-09-26T15:27:19.274Z,6.80
2022-09-26T15:29:50.074Z,8.30
2022-09-26T15:32:27.778Z,8.45
2022-09-26T15:34:56.462Z,8.35
2022-09-26T15:37:30.863Z,8.15
2022-09-26T15:40:18.282Z,8.70
2022-09-26T15:42:58.802Z,8.48
2022-09-26T15:45:33.554Z,9.32
2022-09-26T15:48:24.001Z,8.80
2022-09-26T15:51:12.354Z,8.15
2022-09-26T15:53:55.132Z,8.10
2022-09-26T15:56:35.959Z,8.82
2022-09-26T15:59:20.771Z,10.02
2022-09-26T16:01:52.484Z,8.75
2022-09-26T16:04:28.848Z,8.95
2022-09-26T16:07:00.179Z,8.55
2022-09-26T16:09:43.092Z,23.58
2022-09-26T16:12:16.541Z,20.83
2022-09-26T16:15:02.927Z,24.15
2022-09-26T16:17:37.526Z,16.42
2022-09-26T16:20:25.530Z,16.50
2022-09-26T16:23:14.728Z,13.80
2022-09-26T16:25:47.906Z,11.82
2022-09-26T16:28:18.149Z,11.00
2022-09-26T16:30:58.896Z,31.42
2022-09-26T16:33:30.602Z,234.97
2022-09-26T16:36:09.679Z,32.63
2022-09-26T16:38:37.656Z,22.90
2022-09-26T16:41:08.789Z,33.95
2022-09-26T16:43:38.283Z,19.17
2022-09-26T16:46:09.297Z,19.05
2022-09-26T16:48:52.244Z,21.20
2022-09-26T16:51:27.264Z,68.95
2022-09-26T16:54:21.902Z,45.05
2022-09-26T16:56:51.641Z,111.40
2022-09-26T16:59:23.889Z,102.47
2022-09-26T17:01:59.190Z,151.70
2022-09-26T17:04:32.857Z,80.30
2022-09-26T17:07:06.259Z,35.22
2022-09-26T17:09:36.701Z,25.20
2022-09-26T17:12:08.473Z,21.17
2022-09-26T17:14:40.614Z,20.02
2022-09-26T17:17:16.221Z,18.48
2022-09-26T17:19:46.357Z,16.02
2022-09-26T17:22:17.132Z,23.90
2022-09-26T17:24:45.225Z,39.10
2022-09-26T17:27:22.798Z,23.85
2022-09-26T17:29:52.221Z,21.85
2022-09-26T17:32:35.062Z,14.77
2022-09-26T17:35:12.425Z,13.07
2022-09-26T17:37:39.925Z,16.13
2022-09-26T17:40:19.664Z,16.35
2022-09-26T17:42:47.043Z,16.60
2022-09-26T17:45:15.374Z,14.02
2022-09-26T17:47:43.177Z,14.88
2022-09-26T17:50:21.391Z,14.57
2022-09-26T17:52:50.736Z,15.82
2022-09-26T17:55:20.189Z,14.90
2022-09-26T17:57:48.081Z,15.93
2022-09-26T18:00:17.975Z,20.45
2022-09-26T18:02:48.008Z,27.73
2022-09-26T18:05:23.128Z,21.90
2022-09-26T18:07:52.598Z,20.23
2022-09-26T18:10:22.050Z,21.13
2022-09-26T18:12:51.363Z,21.63
2022-09-26T18:15:22.323Z,22.67
2022-09-26T18:17:50.791Z,25.10
2022-09-26T18:20:19.682Z,37.20
2022-09-26T18:22:49.156Z,40.92
2022-09-26T18:25:19.143Z,25.33
2022-09-26T18:27:47.545Z,27.92
2022-09-26T18:30:15.745Z,34.70
2022-09-26T18:32:44.942Z,32.50
2022-09-26T18:35:16.424Z,33.63
2022-09-26T18:37:44.422Z,34.08
2022-09-26T18:40:16.219Z,30.65
2022-09-26T18:45:17.326Z,40.80
2022-09-26T18:47:45.360Z,42.45
2022-09-26T18:50:23.675Z,42.85
2022-09-26T18:52:52.245Z,44.28
2022-09-26T18:55:43.298Z,46.70
2022-09-26T18:58:27.878Z,46.15
2022-09-26T19:00:56.680Z,48.20
2022-09-26T19:03:25.943Z,54.05
2022-09-26T19:05:56.457Z,53.13
2022-09-26T19:08:28.333Z,57.28
2022-09-26T19:10:56.710Z,60.78
2022-09-26T19:13:27.548Z,65.53
2022-09-26T19:15:55.989Z,60.25
2022-09-26T19:18:24.122Z,56.42
2022-09-26T19:20:51.867Z,51.40
2022-09-26T19:23:19.922Z,51.00
2022-09-26T19:25:47.920Z,48.38
2022-09-26T19:28:20.152Z,60.83
2022-09-26T19:30:48.329Z,59.47
2022-09-26T19:33:16.363Z,44.70
2022-09-26T19:35:44.649Z,47.00
2022-09-26T19:38:15.524Z,49.20
2022-09-26T19:40:48.442Z,45.03
2022-09-26T19:43:17.467Z,37.95
2022-09-26T19:45:45.737Z,40.95
2022-09-26T19:48:16.970Z,34.80
2022-09-26T19:50:46.337Z,37.80
2022-09-26T19:53:15.268Z,38.95
2022-09-26T19:55:43.139Z,39.40
2022-09-26T19:58:15.824Z,37.08
2022-09-26T20:00:44.814Z,38.75
2022-09-26T20:03:23.536Z,35.25
2022-09-26T20:05:51.660Z,33.60
2022-09-26T20:08:22.231Z,29.90
2022-09-26T20:10:50.867Z,35.35
2022-09-26T20:13:19.144Z,32.78
2022-09-26T20:15:47.930Z,31.80
2022-09-26T20:18:20.755Z,30.60
2022-09-26T20:20:52.517Z,31.85
2022-09-26T20:23:22.084Z,34.60
2022-09-26T20:25:52.325Z,31.10
2022-09-26T20:28:20.092Z,29.88
2022-09-26T20:30:58.561Z,46.42
2022-09-26T20:33:27.711Z,40.33
2022-09-26T20:36:06.512Z,39.90
2022-09-26T20:38:46.108Z,32.75
2022-09-26T20:41:34.051Z,30.80
2022-09-26T20:44:05.244Z,29.25
2022-09-26T20:46:34.357Z,24.43
2022-09-26T20:49:04.315Z,27.55
2022-09-26T20:51:35.016Z,26.15
2022-09-26T20:54:03.570Z,23.23
2022-09-26T20:56:31.181Z,22.23
2022-09-26T20:58:59.084Z,20.45
2022-09-26T21:01:27.775Z,21.40
2022-09-26T21:03:56.150Z,27.13
2022-09-26T21:06:25.407Z,32.05
2022-09-26T21:08:53.349Z,28.30
2022-09-26T21:11:21.915Z,27.02
2022-09-26T21:13:50.379Z,30.08
2022-09-26T21:16:19.882Z,21.45
2022-09-26T21:18:49.866Z,27.15
2022-09-26T21:21:27.494Z,33.03
2022-09-26T21:24:22.851Z,31.83
2022-09-26T21:26:52.900Z,31.90
2022-09-26T21:29:20.788Z,23.08
2022-09-26T21:31:50.841Z,27.15
2022-09-26T21:34:26.535Z,20.90
2022-09-26T21:36:55.423Z,25.65
2022-09-26T21:39:23.963Z,24.77
2022-09-26T21:41:53.093Z,29.38
2022-09-26T21:44:25.478Z,22.42
2022-09-26T21:46:53.306Z,23.30
2022-09-26T21:49:21.149Z,20.70
2022-09-26T21:51:51.373Z,18.80
2022-09-26T21:54:25.573Z,24.00
2022-09-26T21:56:56.361Z,25.73
2022-09-26T21:59:24.798Z,15.17
2022-09-26T22:01:53.247Z,17.02
2022-09-26T22:04:22.624Z,16.17
2022-09-26T22:06:50.526Z,17.38
2022-09-26T22:09:18.376Z,17.67
2022-09-26T22:11:45.971Z,15.85
2022-09-26T22:14:14.074Z,15.57
2022-09-26T22:16:41.807Z,14.27
2022-09-26T22:19:09.651Z,14.38
2022-09-26T22:21:37.450Z,14.23
2022-09-26T22:24:05.236Z,13.75
2022-09-26T22:26:32.861Z,13.43
2022-09-26T22:29:00.724Z,12.88
2022-09-26T22:31:28.387Z,11.88
2022-09-26T22:33:59.810Z,11.23
2022-09-26T22:36:27.734Z,10.95
2022-09-26T22:38:55.505Z,10.20
2022-09-26T22:41:23.096Z,11.13
2022-09-26T22:43:52.776Z,10.60
2022-09-26T22:46:21.278Z,9.95
2022-09-26T22:48:49.506Z,10.88
2022-09-26T22:51:18.160Z,14.50
2022-09-26T22:53:46.029Z,13.63
2022-09-26T22:56:14.991Z,11.90
2022-09-26T22:58:44.844Z,12.75
2022-09-26T23:01:14.173Z,14.48
2022-09-26T23:03:42.323Z,15.35
2022-09-26T23:06:10.963Z,15.38
2022-09-26T23:08:38.653Z,15.80
2022-09-26T23:11:07.020Z,17.58
2022-09-26T23:13:35.692Z,19.40
2022-09-26T23:16:07.072Z,18.35
2022-09-26T23:18:35.516Z,17.75
2022-09-26T23:21:07.235Z,16.77
2022-09-26T23:26:02.870Z,14.75
2022-09-26T23:28:32.269Z,15.13
2022-09-26T23:31:07.446Z,16.15
2022-09-26T23:33:35.944Z,14.77
2022-09-26T23:36:03.531Z,14.90
2022-09-26T23:38:31.134Z,14.90
2022-09-26T23:40:59.216Z,14.45
2022-09-26T23:43:26.866Z,15.10
2022-09-26T23:45:54.565Z,16.33
2022-09-26T23:48:23.829Z,15.00
2022-09-26T23:50:51.469Z,14.38
2022-09-26T23:53:19.977Z,13.68
2022-09-26T23:55:48.023Z,13.52
2022-09-26T23:58:15.830Z,14.10
